sensor_id;sensor_type;location;lat;lon;timestamp;P1;durP1;ratioP1;P2;durP2;ratioP2
53281;SDS011;39167;52.794;6.892;2022-10-30T00:00:09;14.85;;;7.53;;
53281;SDS011;39167;52.794;6.892;2022-10-30T00:02:35;17.77;;;7.82;;
53281;SDS011;39167;52.794;6.892;2022-10-30T00:05:01;16.27;;;6.75;;
53281;SDS011;39167;52.794;6.892;2022-10-30T00:07:27;26.80;;;8.38;;
53281;SDS011;39167;52.794;6.892;2022-10-30T00:09:52;17.83;;;7.20;;
53281;SDS011;39167;52.794;6.892;2022-10-30T00:12:18;21.48;;;7.78;;
53281;SDS011;39167;52.794;6.892;2022-10-30T00:14:44;16.38;;;7.78;;
53281;SDS011;39167;52.794;6.892;2022-10-30T00:17:09;14.40;;;7.38;;
53281;SDS011;39167;52.794;6.892;2022-10-30T00:19:35;16.13;;;7.22;;
53281;SDS011;39167;52.794;6.892;2022-10-30T00:22:01;19.63;;;7.95;;
53281;SDS011;39167;52.794;6.892;2022-10-30T00:24:29;17.35;;;7.25;;
53281;SDS011;39167;52.794;6.892;2022-10-30T00:26:55;18.30;;;7.45;;
53281;SDS011;39167;52.794;6.892;2022-10-30T00:29:20;16.73;;;7.93;;
53281;SDS011;39167;52.794;6.892;2022-10-30T00:31:50;15.68;;;7.30;;
53281;SDS011;39167;52.794;6.892;2022-10-30T00:34:16;15.15;;;7.50;;
53281;SDS011;39167;52.794;6.892;2022-10-30T00:36:42;17.02;;;8.25;;
53281;SDS011;39167;52.794;6.892;2022-10-30T00:39:07;16.30;;;7.10;;
53281;SDS011;39167;52.794;6.892;2022-10-30T00:41:33;15.52;;;8.27;;
53281;SDS011;39167;52.794;6.892;2022-10-30T00:43:59;15.93;;;7.75;;
53281;SDS011;39167;52.794;6.892;2022-10-30T00:46:26;14.60;;;7.10;;
53281;SDS011;39167;52.794;6.892;2022-10-30T00:48:57;15.80;;;7.38;;
53281;SDS011;39167;52.794;6.892;2022-10-30T00:51:30;18.80;;;7.97;;
53281;SDS011;39167;52.794;6.892;2022-10-30T00:53:57;15.95;;;7.30;;
53281;SDS011;39167;52.794;6.892;2022-10-30T00:56:24;22.23;;;8.68;;
53281;SDS011;39167;52.794;6.892;2022-10-30T00:58:57;20.83;;;7.82;;
53281;SDS011;39167;52.794;6.892;2022-10-30T01:01:31;20.48;;;8.25;;
53281;SDS011;39167;52.794;6.892;2022-10-30T01:04:00;26.63;;;7.75;;
53281;SDS011;39167;52.794;6.892;2022-10-30T01:06:27;16.45;;;7.20;;
53281;SDS011;39167;52.794;6.892;2022-10-30T01:08:55;14.63;;;7.05;;
53281;SDS011;39167;52.794;6.892;2022-10-30T01:11:21;17.08;;;7.43;;
53281;SDS011;39167;52.794;6.892;2022-10-30T01:13:47;16.60;;;8.57;;
53281;SDS011;39167;52.794;6.892;2022-10-30T01:21:47;20.48;;;8.40;;
53281;SDS011;39167;52.794;6.892;2022-10-30T01:26:51;19.80;;;8.20;;
53281;SDS011;39167;52.794;6.892;2022-10-30T01:29:35;15.77;;;7.78;;
53281;SDS011;39167;52.794;6.892;2022-10-30T01:34:43;16.55;;;7.93;;
53281;SDS011;39167;52.794;6.892;2022-10-30T01:37:18;20.23;;;8.50;;
53281;SDS011;39167;52.794;6.892;2022-10-30T01:39:52;13.68;;;7.75;;
53281;SDS011;39167;52.794;6.892;2022-10-30T01:45:21;20.20;;;7.97;;
53281;SDS011;39167;52.794;6.892;2022-10-30T01:51:03;19.92;;;8.00;;
53281;SDS011;39167;52.794;6.892;2022-10-30T01:56:29;17.75;;;8.75;;
53281;SDS011;39167;52.794;6.892;2022-10-30T01:58:59;18.30;;;9.27;;
53281;SDS011;39167;52.794;6.892;2022-10-30T02:01:33;16.30;;;8.70;;
53281;SDS011;39167;52.794;6.892;2022-10-30T02:04:02;23.73;;;8.50;;
53281;SDS011;39167;52.794;6.892;2022-10-30T02:06:28;17.98;;;9.02;;
53281;SDS011;39167;52.794;6.892;2022-10-30T02:08:54;20.10;;;8.88;;
53281;SDS011;39167;52.794;6.892;2022-10-30T02:11:21;20.13;;;8.27;;
53281;SDS011;39167;52.794;6.892;2022-10-30T02:13:49;15.45;;;8.50;;
53281;SDS011;39167;52.794;6.892;2022-10-30T02:16:16;19.48;;;7.70;;
53281;SDS011;39167;52.794;6.892;2022-10-30T02:18:42;20.15;;;8.65;;
53281;SDS011;39167;52.794;6.892;2022-10-30T02:21:08;20.88;;;7.97;;
53281;SDS011;39167;52.794;6.892;2022-10-30T02:23:33;21.30;;;8.30;;
53281;SDS011;39167;52.794;6.892;2022-10-30T02:25:59;18.60;;;8.52;;
53281;SDS011;39167;52.794;6.892;2022-10-30T02:28:25;20.63;;;9.35;;
53281;SDS011;39167;52.794;6.892;2022-10-30T02:30:51;19.77;;;8.35;;
53281;SDS011;39167;52.794;6.892;2022-10-30T02:33:16;16.80;;;8.20;;
53281;SDS011;39167;52.794;6.892;2022-10-30T02:35:42;15.35;;;8.52;;
53281;SDS011;39167;52.794;6.892;2022-10-30T02:38:08;16.13;;;7.82;;
53281;SDS011;39167;52.794;6.892;2022-10-30T02:40:33;18.55;;;7.70;;
53281;SDS011;39167;52.794;6.892;2022-10-30T02:42:59;15.98;;;8.35;;
53281;SDS011;39167;52.794;6.892;2022-10-30T02:45:25;19.80;;;8.75;;
53281;SDS011;39167;52.794;6.892;2022-10-30T02:47:51;20.13;;;9.10;;
53281;SDS011;39167;52.794;6.892;2022-10-30T02:50:16;17.55;;;8.15;;
53281;SDS011;39167;52.794;6.892;2022-10-30T02:52:42;19.38;;;8.57;;
53281;SDS011;39167;52.794;6.892;2022-10-30T02:55:08;16.42;;;7.28;;
53281;SDS011;39167;52.794;6.892;2022-10-30T02:57:33;17.55;;;8.20;;
53281;SDS011;39167;52.794;6.892;2022-10-30T02:59:59;17.58;;;7.72;;
53281;SDS011;39167;52.794;6.892;2022-10-30T03:02:25;18.02;;;8.30;;
53281;SDS011;39167;52.794;6.892;2022-10-30T03:04:51;15.32;;;7.60;;
53281;SDS011;39167;52.794;6.892;2022-10-30T03:07:17;16.67;;;8.07;;
53281;SDS011;39167;52.794;6.892;2022-10-30T03:09:42;17.90;;;8.20;;
53281;SDS011;39167;52.794;6.892;2022-10-30T03:12:08;22.17;;;8.15;;
53281;SDS011;39167;52.794;6.892;2022-10-30T03:14:34;18.80;;;8.55;;
53281;SDS011;39167;52.794;6.892;2022-10-30T03:16:59;12.85;;;8.63;;
53281;SDS011;39167;52.794;6.892;2022-10-30T03:19:25;19.88;;;8.13;;
53281;SDS011;39167;52.794;6.892;2022-10-30T03:21:52;15.70;;;8.30;;
53281;SDS011;39167;52.794;6.892;2022-10-30T03:24:18;18.50;;;8.98;;
53281;SDS011;39167;52.794;6.892;2022-10-30T03:26:43;20.55;;;8.77;;
53281;SDS011;39167;52.794;6.892;2022-10-30T03:29:10;14.50;;;7.78;;
53281;SDS011;39167;52.794;6.892;2022-10-30T03:31:36;16.83;;;8.35;;
53281;SDS011;39167;52.794;6.892;2022-10-30T03:34:01;17.98;;;7.60;;
53281;SDS011;39167;52.794;6.892;2022-10-30T03:36:27;15.00;;;7.72;;
53281;SDS011;39167;52.794;6.892;2022-10-30T03:38:53;17.35;;;8.77;;
53281;SDS011;39167;52.794;6.892;2022-10-30T03:41:19;23.67;;;9.02;;
53281;SDS011;39167;52.794;6.892;2022-10-30T03:43:44;16.55;;;9.13;;
53281;SDS011;39167;52.794;6.892;2022-10-30T03:46:10;17.02;;;8.25;;
53281;SDS011;39167;52.794;6.892;2022-10-30T03:48:36;20.27;;;8.20;;
53281;SDS011;39167;52.794;6.892;2022-10-30T03:51:02;18.15;;;8.85;;
53281;SDS011;39167;52.794;6.892;2022-10-30T03:53:28;18.25;;;8.80;;
53281;SDS011;39167;52.794;6.892;2022-10-30T03:55:58;18.83;;;9.10;;
53281;SDS011;39167;52.794;6.892;2022-10-30T03:58:26;18.60;;;7.97;;
53281;SDS011;39167;52.794;6.892;2022-10-30T04:00:52;18.30;;;8.05;;
53281;SDS011;39167;52.794;6.892;2022-10-30T04:03:18;13.65;;;8.27;;
53281;SDS011;39167;52.794;6.892;2022-10-30T04:05:43;19.83;;;8.25;;
53281;SDS011;39167;52.794;6.892;2022-10-30T04:08:10;20.55;;;9.25;;
53281;SDS011;39167;52.794;6.892;2022-10-30T04:10:41;18.05;;;8.38;;
53281;SDS011;39167;52.794;6.892;2022-10-30T04:13:08;19.57;;;8.80;;
53281;SDS011;39167;52.794;6.892;2022-10-30T04:15:35;20.65;;;8.50;;
53281;SDS011;39167;52.794;6.892;2022-10-30T04:18:01;19.63;;;9.40;;
53281;SDS011;39167;52.794;6.892;2022-10-30T04:20:27;17.73;;;8.63;;
53281;SDS011;39167;52.794;6.892;2022-10-30T04:22:57;18.27;;;8.70;;
53281;SDS011;39167;52.794;6.892;2022-10-30T04:25:24;20.40;;;9.02;;
53281;SDS011;39167;52.794;6.892;2022-10-30T04:27:50;23.52;;;9.82;;
53281;SDS011;39167;52.794;6.892;2022-10-30T04:30:18;15.73;;;8.55;;
53281;SDS011;39167;52.794;6.892;2022-10-30T04:32:48;24.67;;;9.38;;
53281;SDS011;39167;52.794;6.892;2022-10-30T04:35:18;22.17;;;9.38;;
53281;SDS011;39167;52.794;6.892;2022-10-30T04:40:39;22.45;;;9.10;;
53281;SDS011;39167;52.794;6.892;2022-10-30T04:43:07;28.60;;;10.05;;
53281;SDS011;39167;52.794;6.892;2022-10-30T04:45:34;20.92;;;9.30;;
53281;SDS011;39167;52.794;6.892;2022-10-30T04:48:05;18.25;;;9.35;;
53281;SDS011;39167;52.794;6.892;2022-10-30T04:50:32;17.05;;;9.43;;
53281;SDS011;39167;52.794;6.892;2022-10-30T04:53:02;18.90;;;9.18;;
53281;SDS011;39167;52.794;6.892;2022-10-30T04:55:30;18.17;;;9.45;;
53281;SDS011;39167;52.794;6.892;2022-10-30T04:57:56;18.45;;;9.45;;
53281;SDS011;39167;52.794;6.892;2022-10-30T05:00:23;22.95;;;9.23;;
53281;SDS011;39167;52.794;6.892;2022-10-30T05:02:50;22.20;;;9.15;;
53281;SDS011;39167;52.794;6.892;2022-10-30T05:05:16;23.70;;;9.25;;
53281;SDS011;39167;52.794;6.892;2022-10-30T05:07:41;16.65;;;9.02;;
53281;SDS011;39167;52.794;6.892;2022-10-30T05:10:09;16.75;;;8.25;;
53281;SDS011;39167;52.794;6.892;2022-10-30T05:12:38;15.90;;;8.40;;
53281;SDS011;39167;52.794;6.892;2022-10-30T05:15:06;16.05;;;8.50;;
53281;SDS011;39167;52.794;6.892;2022-10-30T05:17:32;20.48;;;8.80;;
53281;SDS011;39167;52.794;6.892;2022-10-30T05:19:57;18.83;;;8.82;;
53281;SDS011;39167;52.794;6.892;2022-10-30T05:22:23;16.60;;;8.73;;
53281;SDS011;39167;52.794;6.892;2022-10-30T05:24:49;17.42;;;9.82;;
53281;SDS011;39167;52.794;6.892;2022-10-30T05:27:14;18.92;;;9.23;;
53281;SDS011;39167;52.794;6.892;2022-10-30T05:29:40;19.27;;;9.68;;
53281;SDS011;39167;52.794;6.892;2022-10-30T05:32:06;17.60;;;10.10;;
53281;SDS011;39167;52.794;6.892;2022-10-30T05:34:31;17.70;;;9.95;;
53281;SDS011;39167;52.794;6.892;2022-10-30T05:36:57;16.73;;;9.05;;
53281;SDS011;39167;52.794;6.892;2022-10-30T05:39:22;18.70;;;9.32;;
53281;SDS011;39167;52.794;6.892;2022-10-30T05:41:48;14.68;;;8.27;;
53281;SDS011;39167;52.794;6.892;2022-10-30T05:44:14;16.85;;;8.95;;
53281;SDS011;39167;52.794;6.892;2022-10-30T05:46:40;21.95;;;9.10;;
53281;SDS011;39167;52.794;6.892;2022-10-30T05:49:06;17.48;;;9.10;;
53281;SDS011;39167;52.794;6.892;2022-10-30T05:51:32;19.10;;;9.38;;
53281;SDS011;39167;52.794;6.892;2022-10-30T05:53:57;15.88;;;8.70;;
53281;SDS011;39167;52.794;6.892;2022-10-30T05:56:23;15.10;;;9.32;;
53281;SDS011;39167;52.794;6.892;2022-10-30T05:58:49;15.77;;;9.27;;
53281;SDS011;39167;52.794;6.892;2022-10-30T06:01:15;16.58;;;9.07;;
53281;SDS011;39167;52.794;6.892;2022-10-30T06:03:41;17.52;;;8.98;;
53281;SDS011;39167;52.794;6.892;2022-10-30T06:06:07;20.77;;;10.13;;
53281;SDS011;39167;52.794;6.892;2022-10-30T06:08:33;20.23;;;10.25;;
53281;SDS011;39167;52.794;6.892;2022-10-30T06:10:59;20.13;;;9.65;;
53281;SDS011;39167;52.794;6.892;2022-10-30T06:13:25;22.80;;;9.70;;
53281;SDS011;39167;52.794;6.892;2022-10-30T06:15:53;17.58;;;10.35;;
53281;SDS011;39167;52.794;6.892;2022-10-30T06:18:19;21.08;;;10.00;;
53281;SDS011;39167;52.794;6.892;2022-10-30T06:20:45;21.67;;;9.43;;
53281;SDS011;39167;52.794;6.892;2022-10-30T06:23:11;21.83;;;11.27;;
53281;SDS011;39167;52.794;6.892;2022-10-30T06:25:36;20.10;;;10.35;;
53281;SDS011;39167;52.794;6.892;2022-10-30T06:28:02;31.92;;;10.23;;
53281;SDS011;39167;52.794;6.892;2022-10-30T06:30:28;23.00;;;10.98;;
53281;SDS011;39167;52.794;6.892;2022-10-30T06:32:57;22.88;;;10.88;;
53281;SDS011;39167;52.794;6.892;2022-10-30T06:35:23;20.75;;;10.90;;
53281;SDS011;39167;52.794;6.892;2022-10-30T06:37:49;22.20;;;10.88;;
53281;SDS011;39167;52.794;6.892;2022-10-30T06:40:18;21.85;;;10.80;;
53281;SDS011;39167;52.794;6.892;2022-10-30T06:42:44;18.17;;;10.38;;
53281;SDS011;39167;52.794;6.892;2022-10-30T06:45:11;18.98;;;10.50;;
53281;SDS011;39167;52.794;6.892;2022-10-30T06:47:38;24.42;;;10.52;;
53281;SDS011;39167;52.794;6.892;2022-10-30T06:50:05;24.92;;;11.63;;
53281;SDS011;39167;52.794;6.892;2022-10-30T06:52:32;21.98;;;10.48;;
53281;SDS011;39167;52.794;6.892;2022-10-30T06:54:57;26.15;;;11.80;;
53281;SDS011;39167;52.794;6.892;2022-10-30T06:57:23;26.13;;;10.60;;
53281;SDS011;39167;52.794;6.892;2022-10-30T06:59:49;18.10;;;10.68;;
53281;SDS011;39167;52.794;6.892;2022-10-30T07:02:15;22.75;;;9.80;;
53281;SDS011;39167;52.794;6.892;2022-10-30T07:04:40;23.35;;;10.45;;
53281;SDS011;39167;52.794;6.892;2022-10-30T07:07:06;24.23;;;11.38;;
53281;SDS011;39167;52.794;6.892;2022-10-30T07:09:32;23.13;;;11.48;;
53281;SDS011;39167;52.794;6.892;2022-10-30T07:11:57;24.73;;;12.45;;
53281;SDS011;39167;52.794;6.892;2022-10-30T07:14:23;20.60;;;11.27;;
53281;SDS011;39167;52.794;6.892;2022-10-30T07:16:49;22.75;;;11.90;;
53281;SDS011;39167;52.794;6.892;2022-10-30T07:19:15;25.85;;;13.30;;
53281;SDS011;39167;52.794;6.892;2022-10-30T07:21:40;18.70;;;10.82;;
53281;SDS011;39167;52.794;6.892;2022-10-30T07:24:06;24.92;;;12.23;;
53281;SDS011;39167;52.794;6.892;2022-10-30T07:26:32;21.80;;;12.43;;
53281;SDS011;39167;52.794;6.892;2022-10-30T07:29:02;25.45;;;11.65;;
53281;SDS011;39167;52.794;6.892;2022-10-30T07:31:28;25.85;;;11.63;;
53281;SDS011;39167;52.794;6.892;2022-10-30T07:33:54;25.67;;;12.27;;
53281;SDS011;39167;52.794;6.892;2022-10-30T07:36:20;29.67;;;13.43;;
53281;SDS011;39167;52.794;6.892;2022-10-30T07:38:49;27.30;;;11.43;;
53281;SDS011;39167;52.794;6.892;2022-10-30T07:41:19;22.13;;;12.02;;
53281;SDS011;39167;52.794;6.892;2022-10-30T07:43:45;19.08;;;11.75;;
53281;SDS011;39167;52.794;6.892;2022-10-30T07:46:11;24.83;;;11.80;;
53281;SDS011;39167;52.794;6.892;2022-10-30T07:48:37;24.42;;;11.60;;
53281;SDS011;39167;52.794;6.892;2022-10-30T07:51:03;23.10;;;11.98;;
53281;SDS011;39167;52.794;6.892;2022-10-30T07:53:29;21.80;;;12.02;;
53281;SDS011;39167;52.794;6.892;2022-10-30T07:55:55;20.35;;;11.40;;
53281;SDS011;39167;52.794;6.892;2022-10-30T07:58:21;19.85;;;12.15;;
53281;SDS011;39167;52.794;6.892;2022-10-30T08:00:47;25.55;;;12.75;;
53281;SDS011;39167;52.794;6.892;2022-10-30T08:03:13;25.88;;;12.85;;
53281;SDS011;39167;52.794;6.892;2022-10-30T08:05:39;23.60;;;13.10;;
53281;SDS011;39167;52.794;6.892;2022-10-30T08:08:05;19.13;;;11.80;;
53281;SDS011;39167;52.794;6.892;2022-10-30T08:10:32;26.50;;;13.23;;
53281;SDS011;39167;52.794;6.892;2022-10-30T08:12:58;25.80;;;12.55;;
53281;SDS011;39167;52.794;6.892;2022-10-30T08:15:24;22.83;;;13.52;;
53281;SDS011;39167;52.794;6.892;2022-10-30T08:17:50;20.48;;;12.60;;
53281;SDS011;39167;52.794;6.892;2022-10-30T08:20:16;25.25;;;13.45;;
53281;SDS011;39167;52.794;6.892;2022-10-30T08:22:48;24.95;;;13.25;;
53281;SDS011;39167;52.794;6.892;2022-10-30T08:25:23;24.80;;;13.18;;
53281;SDS011;39167;52.794;6.892;2022-10-30T08:27:52;25.13;;;13.68;;
53281;SDS011;39167;52.794;6.892;2022-10-30T08:30:22;23.83;;;13.18;;
53281;SDS011;39167;52.794;6.892;2022-10-30T08:32:48;27.40;;;13.48;;
53281;SDS011;39167;52.794;6.892;2022-10-30T08:35:14;19.85;;;12.50;;
53281;SDS011;39167;52.794;6.892;2022-10-30T08:37:40;27.23;;;13.57;;
53281;SDS011;39167;52.794;6.892;2022-10-30T08:40:07;20.33;;;12.93;;
53281;SDS011;39167;52.794;6.892;2022-10-30T08:42:34;25.65;;;13.73;;
53281;SDS011;39167;52.794;6.892;2022-10-30T08:44:59;30.92;;;14.02;;
53281;SDS011;39167;52.794;6.892;2022-10-30T08:47:25;32.33;;;13.25;;
53281;SDS011;39167;52.794;6.892;2022-10-30T08:49:51;30.17;;;13.82;;
53281;SDS011;39167;52.794;6.892;2022-10-30T08:52:16;28.23;;;14.15;;
53281;SDS011;39167;52.794;6.892;2022-10-30T08:54:42;25.05;;;14.07;;
53281;SDS011;39167;52.794;6.892;2022-10-30T08:57:08;23.52;;;13.88;;
53281;SDS011;39167;52.794;6.892;2022-10-30T08:59:33;27.05;;;14.10;;
53281;SDS011;39167;52.794;6.892;2022-10-30T09:01:59;22.67;;;13.65;;
53281;SDS011;39167;52.794;6.892;2022-10-30T09:04:25;24.48;;;13.57;;
53281;SDS011;39167;52.794;6.892;2022-10-30T09:06:50;23.02;;;12.75;;
53281;SDS011;39167;52.794;6.892;2022-10-30T09:09:16;22.63;;;13.13;;
53281;SDS011;39167;52.794;6.892;2022-10-30T09:11:41;28.48;;;13.40;;
53281;SDS011;39167;52.794;6.892;2022-10-30T09:14:07;26.83;;;14.32;;
53281;SDS011;39167;52.794;6.892;2022-10-30T09:16:33;25.73;;;13.57;;
53281;SDS011;39167;52.794;6.892;2022-10-30T09:18:58;31.52;;;14.07;;
53281;SDS011;39167;52.794;6.892;2022-10-30T09:21:24;27.88;;;14.23;;
53281;SDS011;39167;52.794;6.892;2022-10-30T09:23:50;28.58;;;14.00;;
53281;SDS011;39167;52.794;6.892;2022-10-30T09:26:15;24.52;;;12.85;;
53281;SDS011;39167;52.794;6.892;2022-10-30T09:28:41;27.98;;;14.55;;
53281;SDS011;39167;52.794;6.892;2022-10-30T09:31:07;27.50;;;13.50;;
53281;SDS011;39167;52.794;6.892;2022-10-30T09:33:32;22.30;;;13.57;;
53281;SDS011;39167;52.794;6.892;2022-10-30T09:35:58;35.03;;;14.63;;
53281;SDS011;39167;52.794;6.892;2022-10-30T09:38:26;26.48;;;13.93;;
53281;SDS011;39167;52.794;6.892;2022-10-30T09:41:10;30.92;;;15.27;;
53281;SDS011;39167;52.794;6.892;2022-10-30T09:46:25;27.73;;;14.40;;
53281;SDS011;39167;52.794;6.892;2022-10-30T09:54:31;24.23;;;13.52;;
53281;SDS011;39167;52.794;6.892;2022-10-30T10:05:24;28.08;;;13.20;;
53281;SDS011;39167;52.794;6.892;2022-10-30T10:07:54;23.55;;;13.00;;
53281;SDS011;39167;52.794;6.892;2022-10-30T10:10:34;33.47;;;13.75;;
53281;SDS011;39167;52.794;6.892;2022-10-30T10:13:09;21.17;;;12.80;;
53281;SDS011;39167;52.794;6.892;2022-10-30T10:15:48;24.20;;;13.80;;
53281;SDS011;39167;52.794;6.892;2022-10-30T10:18:25;25.88;;;13.30;;
53281;SDS011;39167;52.794;6.892;2022-10-30T10:21:14;29.55;;;13.85;;
53281;SDS011;39167;52.794;6.892;2022-10-30T10:23:48;20.65;;;13.20;;
53281;SDS011;39167;52.794;6.892;2022-10-30T10:26:25;20.95;;;12.68;;
53281;SDS011;39167;52.794;6.892;2022-10-30T10:34:50;24.85;;;11.93;;
53281;SDS011;39167;52.794;6.892;2022-10-30T10:43:40;26.20;;;13.18;;
53281;SDS011;39167;52.794;6.892;2022-10-30T10:52:37;27.83;;;12.70;;
53281;SDS011;39167;52.794;6.892;2022-10-30T10:55:15;23.13;;;12.93;;
53281;SDS011;39167;52.794;6.892;2022-10-30T10:57:43;23.00;;;12.57;;
53281;SDS011;39167;52.794;6.892;2022-10-30T11:00:14;22.00;;;12.65;;
53281;SDS011;39167;52.794;6.892;2022-10-30T11:10:44;23.23;;;11.63;;
53281;SDS011;39167;52.794;6.892;2022-10-30T11:13:13;20.63;;;12.68;;
53281;SDS011;39167;52.794;6.892;2022-10-30T11:15:50;20.65;;;11.68;;
53281;SDS011;39167;52.794;6.892;2022-10-30T11:18:28;22.75;;;11.88;;
53281;SDS011;39167;52.794;6.892;2022-10-30T11:26:03;21.33;;;11.77;;
53281;SDS011;39167;52.794;6.892;2022-10-30T11:31:59;25.27;;;11.07;;
53281;SDS011;39167;52.794;6.892;2022-10-30T11:34:30;24.15;;;11.20;;
53281;SDS011;39167;52.794;6.892;2022-10-30T11:36:58;20.77;;;11.15;;
53281;SDS011;39167;52.794;6.892;2022-10-30T11:39:27;25.80;;;12.10;;
53281;SDS011;39167;52.794;6.892;2022-10-30T11:42:11;20.83;;;10.80;;
53281;SDS011;39167;52.794;6.892;2022-10-30T11:44:41;26.40;;;11.80;;
53281;SDS011;39167;52.794;6.892;2022-10-30T11:47:10;21.70;;;10.80;;
53281;SDS011;39167;52.794;6.892;2022-10-30T11:49:53;22.33;;;10.50;;
53281;SDS011;39167;52.794;6.892;2022-10-30T11:52:22;26.83;;;11.07;;
53281;SDS011;39167;52.794;6.892;2022-10-30T11:54:49;23.80;;;11.27;;
53281;SDS011;39167;52.794;6.892;2022-10-30T11:57:32;21.33;;;10.20;;
53281;SDS011;39167;52.794;6.892;2022-10-30T12:00:29;21.40;;;10.85;;
53281;SDS011;39167;52.794;6.892;2022-10-30T12:02:58;22.02;;;10.48;;
53281;SDS011;39167;52.794;6.892;2022-10-30T12:10:31;20.35;;;9.55;;
53281;SDS011;39167;52.794;6.892;2022-10-30T12:13:04;22.23;;;9.97;;
53281;SDS011;39167;52.794;6.892;2022-10-30T12:15:36;29.17;;;10.65;;
53281;SDS011;39167;52.794;6.892;2022-10-30T12:18:04;20.13;;;9.57;;
53281;SDS011;39167;52.794;6.892;2022-10-30T12:20:31;20.48;;;9.13;;
53281;SDS011;39167;52.794;6.892;2022-10-30T12:23:10;21.00;;;9.73;;
53281;SDS011;39167;52.794;6.892;2022-10-30T12:25:40;23.33;;;9.35;;
53281;SDS011;39167;52.794;6.892;2022-10-30T12:28:21;19.20;;;8.32;;
53281;SDS011;39167;52.794;6.892;2022-10-30T12:33:41;22.85;;;9.85;;
53281;SDS011;39167;52.794;6.892;2022-10-30T12:36:29;22.75;;;11.15;;
53281;SDS011;39167;52.794;6.892;2022-10-30T12:44:17;25.70;;;11.20;;
53281;SDS011;39167;52.794;6.892;2022-10-30T12:46:59;25.15;;;10.30;;
53281;SDS011;39167;52.794;6.892;2022-10-30T12:49:30;21.02;;;10.35;;
53281;SDS011;39167;52.794;6.892;2022-10-30T12:54:49;23.52;;;10.88;;
53281;SDS011;39167;52.794;6.892;2022-10-30T12:57:27;19.55;;;9.10;;
53281;SDS011;39167;52.794;6.892;2022-10-30T13:00:32;23.10;;;10.63;;
53281;SDS011;39167;52.794;6.892;2022-10-30T13:02:52;24.83;;;11.20;;
53281;SDS011;39167;52.794;6.892;2022-10-30T13:05:27;20.70;;;10.35;;
53281;SDS011;39167;52.794;6.892;2022-10-30T13:13:37;28.35;;;10.75;;
53281;SDS011;39167;52.794;6.892;2022-10-30T13:16:23;19.92;;;10.70;;
53281;SDS011;39167;52.794;6.892;2022-10-30T13:18:51;18.40;;;9.10;;
53281;SDS011;39167;52.794;6.892;2022-10-30T13:29:25;24.30;;;11.23;;
53281;SDS011;39167;52.794;6.892;2022-10-30T13:31:57;24.85;;;12.52;;
53281;SDS011;39167;52.794;6.892;2022-10-30T13:37:26;24.73;;;11.18;;
53281;SDS011;39167;52.794;6.892;2022-10-30T13:40:13;25.50;;;10.65;;
53281;SDS011;39167;52.794;6.892;2022-10-30T13:42:49;23.75;;;10.60;;
53281;SDS011;39167;52.794;6.892;2022-10-30T13:48:10;25.90;;;12.73;;
53281;SDS011;39167;52.794;6.892;2022-10-30T13:53:37;20.85;;;11.43;;
53281;SDS011;39167;52.794;6.892;2022-10-30T13:56:07;22.33;;;11.00;;
53281;SDS011;39167;52.794;6.892;2022-10-30T13:58:45;18.85;;;10.90;;
53281;SDS011;39167;52.794;6.892;2022-10-30T14:04:46;26.33;;;9.82;;
53281;SDS011;39167;52.794;6.892;2022-10-30T14:07:34;21.17;;;10.68;;
53281;SDS011;39167;52.794;6.892;2022-10-30T14:12:51;28.83;;;10.75;;
53281;SDS011;39167;52.794;6.892;2022-10-30T14:20:45;21.95;;;11.27;;
53281;SDS011;39167;52.794;6.892;2022-10-30T14:23:13;24.02;;;10.98;;
53281;SDS011;39167;52.794;6.892;2022-10-30T14:26:27;24.30;;;10.95;;
53281;SDS011;39167;52.794;6.892;2022-10-30T14:28:37;27.92;;;11.15;;
53281;SDS011;39167;52.794;6.892;2022-10-30T14:31:09;15.80;;;8.95;;
53281;SDS011;39167;52.794;6.892;2022-10-30T14:36:18;24.30;;;11.30;;
53281;SDS011;39167;52.794;6.892;2022-10-30T14:58:38;25.80;;;10.50;;
53281;SDS011;39167;52.794;6.892;2022-10-30T15:11:58;20.02;;;10.60;;
53281;SDS011;39167;52.794;6.892;2022-10-30T15:14:43;21.50;;;11.07;;
53281;SDS011;39167;52.794;6.892;2022-10-30T15:17:15;23.85;;;10.40;;
53281;SDS011;39167;52.794;6.892;2022-10-30T15:19:47;22.35;;;10.48;;
53281;SDS011;39167;52.794;6.892;2022-10-30T15:22:18;19.23;;;10.70;;
53281;SDS011;39167;52.794;6.892;2022-10-30T15:24:45;20.15;;;10.45;;
53281;SDS011;39167;52.794;6.892;2022-10-30T15:27:18;19.23;;;11.13;;
53281;SDS011;39167;52.794;6.892;2022-10-30T15:29:48;20.52;;;10.88;;
53281;SDS011;39167;52.794;6.892;2022-10-30T15:32:18;18.90;;;11.05;;
53281;SDS011;39167;52.794;6.892;2022-10-30T15:34:55;17.77;;;10.15;;
53281;SDS011;39167;52.794;6.892;2022-10-30T15:37:27;22.55;;;11.13;;
53281;SDS011;39167;52.794;6.892;2022-10-30T15:42:41;25.02;;;11.40;;
53281;SDS011;39167;52.794;6.892;2022-10-30T15:45:10;19.90;;;11.25;;
53281;SDS011;39167;52.794;6.892;2022-10-30T15:47:52;24.65;;;12.48;;
53281;SDS011;39167;52.794;6.892;2022-10-30T15:50:27;29.85;;;12.50;;
53281;SDS011;39167;52.794;6.892;2022-10-30T15:52:54;19.58;;;11.77;;
53281;SDS011;39167;52.794;6.892;2022-10-30T15:55:22;25.65;;;12.38;;
53281;SDS011;39167;52.794;6.892;2022-10-30T15:57:52;24.73;;;11.63;;
53281;SDS011;39167;52.794;6.892;2022-10-30T16:00:22;24.08;;;12.40;;
53281;SDS011;39167;52.794;6.892;2022-10-30T16:03:13;24.05;;;12.23;;
53281;SDS011;39167;52.794;6.892;2022-10-30T16:05:41;21.70;;;11.68;;
53281;SDS011;39167;52.794;6.892;2022-10-30T16:08:11;22.42;;;12.32;;
53281;SDS011;39167;52.794;6.892;2022-10-30T16:10:45;25.08;;;12.90;;
53281;SDS011;39167;52.794;6.892;2022-10-30T16:13:15;18.92;;;12.07;;
53281;SDS011;39167;52.794;6.892;2022-10-30T16:15:42;23.37;;;11.03;;
53281;SDS011;39167;52.794;6.892;2022-10-30T16:18:16;20.70;;;11.13;;
53281;SDS011;39167;52.794;6.892;2022-10-30T16:20:54;21.17;;;11.48;;
53281;SDS011;39167;52.794;6.892;2022-10-30T16:23:22;21.17;;;11.73;;
53281;SDS011;39167;52.794;6.892;2022-10-30T16:25:55;22.58;;;10.93;;
53281;SDS011;39167;52.794;6.892;2022-10-30T16:28:30;22.85;;;11.30;;
53281;SDS011;39167;52.794;6.892;2022-10-30T16:31:01;26.30;;;12.43;;
53281;SDS011;39167;52.794;6.892;2022-10-30T16:33:30;25.65;;;12.05;;
53281;SDS011;39167;52.794;6.892;2022-10-30T16:35:58;25.80;;;13.15;;
53281;SDS011;39167;52.794;6.892;2022-10-30T16:38:27;26.33;;;12.80;;
53281;SDS011;39167;52.794;6.892;2022-10-30T16:40:55;26.10;;;13.77;;
53281;SDS011;39167;52.794;6.892;2022-10-30T16:43:23;25.05;;;12.27;;
53281;SDS011;39167;52.794;6.892;2022-10-30T16:45:55;22.02;;;13.52;;
53281;SDS011;39167;52.794;6.892;2022-10-30T16:49:00;27.48;;;13.38;;
53281;SDS011;39167;52.794;6.892;2022-10-30T16:51:27;23.20;;;12.45;;
53281;SDS011;39167;52.794;6.892;2022-10-30T16:53:54;24.38;;;14.48;;
53281;SDS011;39167;52.794;6.892;2022-10-30T16:56:21;25.80;;;13.77;;
53281;SDS011;39167;52.794;6.892;2022-10-30T16:58:49;22.65;;;14.32;;
53281;SDS011;39167;52.794;6.892;2022-10-30T17:01:16;27.10;;;14.90;;
53281;SDS011;39167;52.794;6.892;2022-10-30T17:03:42;27.75;;;14.05;;
53281;SDS011;39167;52.794;6.892;2022-10-30T17:08:59;29.30;;;15.93;;
53281;SDS011;39167;52.794;6.892;2022-10-30T17:11:34;26.17;;;14.98;;
53281;SDS011;39167;52.794;6.892;2022-10-30T17:14:14;22.08;;;14.20;;
53281;SDS011;39167;52.794;6.892;2022-10-30T17:16:49;24.23;;;13.93;;
53281;SDS011;39167;52.794;6.892;2022-10-30T17:19:44;29.88;;;14.02;;